sensor_id;sensor_type;location;lat;lon;timestamp;P1;durP1;ratioP1;P2;durP2;ratioP2
78778;SDS011;68121;52.404;5.318;2023-03-13T00:01:19;20.88;;;4.13;;
78778;SDS011;68121;52.404;5.318;2023-03-13T00:03:48;17.73;;;4.88;;
78778;SDS011;68121;52.404;5.318;2023-03-13T00:06:14;13.23;;;3.00;;
78778;SDS011;68121;52.404;5.318;2023-03-13T00:08:41;15.90;;;3.25;;
78778;SDS011;68121;52.404;5.318;2023-03-13T00:11:09;16.45;;;3.03;;
78778;SDS011;68121;52.404;5.318;2023-03-13T00:13:37;16.73;;;3.58;;
78778;SDS011;68121;52.404;5.318;2023-03-13T00:16:04;11.25;;;4.03;;
78778;SDS011;68121;52.404;5.318;2023-03-13T00:18:35;14.45;;;2.67;;
78778;SDS011;68121;52.404;5.318;2023-03-13T00:21:02;13.65;;;2.55;;
78778;SDS011;68121;52.404;5.318;2023-03-13T00:23:31;16.15;;;3.45;;
78778;SDS011;68121;52.404;5.318;2023-03-13T00:25:59;16.27;;;2.78;;
78778;SDS011;68121;52.404;5.318;2023-03-13T00:28:28;14.60;;;3.58;;
78778;SDS011;68121;52.404;5.318;2023-03-13T00:31:05;8.48;;;2.53;;
78778;SDS011;68121;52.404;5.318;2023-03-13T00:33:35;15.18;;;4.03;;
78778;SDS011;68121;52.404;5.318;2023-03-13T00:36:06;19.52;;;4.03;;
78778;SDS011;68121;52.404;5.318;2023-03-13T00:38:34;19.48;;;4.15;;
78778;SDS011;68121;52.404;5.318;2023-03-13T00:41:05;19.75;;;3.90;;
78778;SDS011;68121;52.404;5.318;2023-03-13T00:43:42;18.15;;;3.42;;
78778;SDS011;68121;52.404;5.318;2023-03-13T00:46:09;13.63;;;3.08;;
78778;SDS011;68121;52.404;5.318;2023-03-13T00:48:36;12.02;;;2.10;;
78778;SDS011;68121;52.404;5.318;2023-03-13T00:51:02;17.67;;;4.38;;
78778;SDS011;68121;52.404;5.318;2023-03-13T00:53:29;18.95;;;3.83;;
78778;SDS011;68121;52.404;5.318;2023-03-13T00:56:15;19.50;;;3.55;;
78778;SDS011;68121;52.404;5.318;2023-03-13T00:58:43;13.25;;;2.55;;
78778;SDS011;68121;52.404;5.318;2023-03-13T01:01:11;14.07;;;2.42;;
78778;SDS011;68121;52.404;5.318;2023-03-13T01:03:43;17.67;;;4.88;;
78778;SDS011;68121;52.404;5.318;2023-03-13T01:06:11;13.23;;;3.72;;
78778;SDS011;68121;52.404;5.318;2023-03-13T01:08:39;20.55;;;4.05;;
78778;SDS011;68121;52.404;5.318;2023-03-13T01:11:06;8.52;;;2.55;;
78778;SDS011;68121;52.404;5.318;2023-03-13T01:13:37;9.93;;;2.75;;
78778;SDS011;68121;52.404;5.318;2023-03-13T01:16:05;15.45;;;3.47;;
78778;SDS011;68121;52.404;5.318;2023-03-13T01:18:41;14.10;;;2.75;;
78778;SDS011;68121;52.404;5.318;2023-03-13T01:21:09;11.02;;;3.35;;
78778;SDS011;68121;52.404;5.318;2023-03-13T01:23:36;15.45;;;3.00;;
78778;SDS011;68121;52.404;5.318;2023-03-13T01:26:06;9.48;;;3.05;;
78778;SDS011;68121;52.404;5.318;2023-03-13T01:28:33;5.93;;;2.53;;
78778;SDS011;68121;52.404;5.318;2023-03-13T01:31:00;11.48;;;2.97;;
78778;SDS011;68121;52.404;5.318;2023-03-13T01:33:34;9.50;;;2.92;;
78778;SDS011;68121;52.404;5.318;2023-03-13T01:36:01;11.60;;;3.10;;
78778;SDS011;68121;52.404;5.318;2023-03-13T01:38:27;6.90;;;2.53;;
78778;SDS011;68121;52.404;5.318;2023-03-13T01:40:54;8.77;;;3.10;;
78778;SDS011;68121;52.404;5.318;2023-03-13T01:43:21;8.93;;;2.67;;
78778;SDS011;68121;52.404;5.318;2023-03-13T01:48:51;7.53;;;3.22;;
78778;SDS011;68121;52.404;5.318;2023-03-13T01:51:53;5.70;;;2.60;;
78778;SDS011;68121;52.404;5.318;2023-03-13T01:54:26;4.80;;;2.13;;
78778;SDS011;68121;52.404;5.318;2023-03-13T01:59:47;5.25;;;2.25;;
78778;SDS011;68121;52.404;5.318;2023-03-13T02:02:17;4.32;;;2.58;;
78778;SDS011;68121;52.404;5.318;2023-03-13T02:04:49;3.83;;;1.90;;
78778;SDS011;68121;52.404;5.318;2023-03-13T02:07:27;5.75;;;2.70;;
78778;SDS011;68121;52.404;5.318;2023-03-13T02:10:17;9.43;;;3.15;;
78778;SDS011;68121;52.404;5.318;2023-03-13T02:12:44;4.18;;;2.22;;
78778;SDS011;68121;52.404;5.318;2023-03-13T02:15:12;5.97;;;2.70;;
78778;SDS011;68121;52.404;5.318;2023-03-13T02:17:40;7.28;;;2.60;;
78778;SDS011;68121;52.404;5.318;2023-03-13T02:20:08;5.72;;;2.95;;
78778;SDS011;68121;52.404;5.318;2023-03-13T02:27:54;6.43;;;2.75;;
78778;SDS011;68121;52.404;5.318;2023-03-13T02:30:24;6.90;;;3.33;;
78778;SDS011;68121;52.404;5.318;2023-03-13T02:32:51;6.70;;;3.22;;
78778;SDS011;68121;52.404;5.318;2023-03-13T02:35:20;9.27;;;3.55;;
78778;SDS011;68121;52.404;5.318;2023-03-13T02:37:51;7.60;;;3.95;;
78778;SDS011;68121;52.404;5.318;2023-03-13T02:40:23;5.72;;;2.95;;
78778;SDS011;68121;52.404;5.318;2023-03-13T02:42:52;5.75;;;2.95;;
78778;SDS011;68121;52.404;5.318;2023-03-13T02:45:20;6.38;;;4.35;;
78778;SDS011;68121;52.404;5.318;2023-03-13T02:47:46;11.05;;;4.53;;
78778;SDS011;68121;52.404;5.318;2023-03-13T02:50:13;9.32;;;4.57;;
78778;SDS011;68121;52.404;5.318;2023-03-13T02:52:50;6.82;;;3.90;;
78778;SDS011;68121;52.404;5.318;2023-03-13T02:55:23;5.50;;;4.22;;
78778;SDS011;68121;52.404;5.318;2023-03-13T02:58:02;6.88;;;3.67;;
78778;SDS011;68121;52.404;5.318;2023-03-13T03:00:28;5.97;;;3.33;;
78778;SDS011;68121;52.404;5.318;2023-03-13T03:02:55;8.90;;;5.03;;
78778;SDS011;68121;52.404;5.318;2023-03-13T03:05:21;7.40;;;4.47;;
78778;SDS011;68121;52.404;5.318;2023-03-13T03:07:47;8.43;;;3.75;;
78778;SDS011;68121;52.404;5.318;2023-03-13T03:10:14;11.02;;;4.60;;
78778;SDS011;68121;52.404;5.318;2023-03-13T03:12:41;7.25;;;4.57;;
78778;SDS011;68121;52.404;5.318;2023-03-13T03:15:07;6.13;;;4.10;;
78778;SDS011;68121;52.404;5.318;2023-03-13T03:17:33;8.02;;;4.45;;
78778;SDS011;68121;52.404;5.318;2023-03-13T03:20:00;7.32;;;4.50;;
78778;SDS011;68121;52.404;5.318;2023-03-13T03:22:26;8.00;;;3.75;;
78778;SDS011;68121;52.404;5.318;2023-03-13T03:24:52;8.15;;;4.25;;
78778;SDS011;68121;52.404;5.318;2023-03-13T03:27:18;7.22;;;4.32;;
78778;SDS011;68121;52.404;5.318;2023-03-13T03:29:44;7.50;;;4.18;;
78778;SDS011;68121;52.404;5.318;2023-03-13T03:32:10;14.02;;;5.97;;
78778;SDS011;68121;52.404;5.318;2023-03-13T03:34:36;13.77;;;5.82;;
78778;SDS011;68121;52.404;5.318;2023-03-13T03:37:02;8.98;;;5.13;;
78778;SDS011;68121;52.404;5.318;2023-03-13T03:39:28;10.60;;;5.43;;
78778;SDS011;68121;52.404;5.318;2023-03-13T03:41:54;14.43;;;5.95;;
78778;SDS011;68121;52.404;5.318;2023-03-13T03:44:20;13.90;;;6.30;;
78778;SDS011;68121;52.404;5.318;2023-03-13T03:46:46;12.60;;;5.78;;
78778;SDS011;68121;52.404;5.318;2023-03-13T03:49:12;8.63;;;5.50;;
78778;SDS011;68121;52.404;5.318;2023-03-13T03:51:38;10.48;;;5.15;;
78778;SDS011;68121;52.404;5.318;2023-03-13T03:54:04;8.85;;;5.13;;
78778;SDS011;68121;52.404;5.318;2023-03-13T03:56:30;10.18;;;5.25;;
78778;SDS011;68121;52.404;5.318;2023-03-13T03:58:56;14.95;;;5.85;;
78778;SDS011;68121;52.404;5.318;2023-03-13T04:01:22;12.25;;;5.47;;
78778;SDS011;68121;52.404;5.318;2023-03-13T04:03:48;10.82;;;4.90;;
78778;SDS011;68121;52.404;5.318;2023-03-13T04:06:14;11.90;;;5.18;;
78778;SDS011;68121;52.404;5.318;2023-03-13T04:08:40;11.82;;;5.03;;
78778;SDS011;68121;52.404;5.318;2023-03-13T04:11:06;9.40;;;5.47;;
78778;SDS011;68121;52.404;5.318;2023-03-13T04:13:32;12.55;;;5.63;;
78778;SDS011;68121;52.404;5.318;2023-03-13T04:15:58;13.55;;;5.40;;
78778;SDS011;68121;52.404;5.318;2023-03-13T04:18:24;10.18;;;5.65;;
78778;SDS011;68121;52.404;5.318;2023-03-13T04:20:58;11.57;;;4.97;;
78778;SDS011;68121;52.404;5.318;2023-03-13T04:23:25;10.95;;;3.85;;
78778;SDS011;68121;52.404;5.318;2023-03-13T04:25:51;9.13;;;4.60;;
78778;SDS011;68121;52.404;5.318;2023-03-13T04:28:17;8.65;;;4.28;;
78778;SDS011;68121;52.404;5.318;2023-03-13T04:30:43;6.78;;;5.00;;
78778;SDS011;68121;52.404;5.318;2023-03-13T04:33:10;10.90;;;4.13;;
78778;SDS011;68121;52.404;5.318;2023-03-13T04:35:36;10.43;;;5.47;;
78778;SDS011;68121;52.404;5.318;2023-03-13T04:38:02;12.73;;;4.15;;
78778;SDS011;68121;52.404;5.318;2023-03-13T04:40:28;19.33;;;4.75;;
78778;SDS011;68121;52.404;5.318;2023-03-13T04:42:54;6.22;;;3.88;;
78778;SDS011;68121;52.404;5.318;2023-03-13T04:45:20;10.00;;;3.78;;
78778;SDS011;68121;52.404;5.318;2023-03-13T04:47:46;7.25;;;3.50;;
78778;SDS011;68121;52.404;5.318;2023-03-13T04:50:12;7.10;;;3.40;;
78778;SDS011;68121;52.404;5.318;2023-03-13T04:52:38;5.88;;;3.65;;
78778;SDS011;68121;52.404;5.318;2023-03-13T04:55:04;5.30;;;2.97;;
78778;SDS011;68121;52.404;5.318;2023-03-13T04:57:30;8.60;;;3.25;;
78778;SDS011;68121;52.404;5.318;2023-03-13T04:59:56;7.75;;;3.10;;
78778;SDS011;68121;52.404;5.318;2023-03-13T05:02:23;5.53;;;3.00;;
78778;SDS011;68121;52.404;5.318;2023-03-13T05:04:49;6.55;;;2.78;;
78778;SDS011;68121;52.404;5.318;2023-03-13T05:07:15;5.95;;;2.90;;
78778;SDS011;68121;52.404;5.318;2023-03-13T05:09:41;7.20;;;2.92;;
78778;SDS011;68121;52.404;5.318;2023-03-13T05:12:07;4.57;;;2.78;;
78778;SDS011;68121;52.404;5.318;2023-03-13T05:14:33;10.27;;;3.67;;
78778;SDS011;68121;52.404;5.318;2023-03-13T05:16:59;4.60;;;2.80;;
78778;SDS011;68121;52.404;5.318;2023-03-13T05:19:25;5.30;;;3.17;;
78778;SDS011;68121;52.404;5.318;2023-03-13T05:21:51;7.00;;;3.25;;
78778;SDS011;68121;52.404;5.318;2023-03-13T05:24:17;4.55;;;3.25;;
78778;SDS011;68121;52.404;5.318;2023-03-13T05:26:43;8.02;;;3.75;;
78778;SDS011;68121;52.404;5.318;2023-03-13T05:29:09;5.43;;;2.92;;
78778;SDS011;68121;52.404;5.318;2023-03-13T05:31:35;7.90;;;3.05;;
78778;SDS011;68121;52.404;5.318;2023-03-13T05:34:01;7.97;;;3.60;;
78778;SDS011;68121;52.404;5.318;2023-03-13T05:36:27;5.93;;;2.83;;
78778;SDS011;68121;52.404;5.318;2023-03-13T05:38:53;8.25;;;3.47;;
78778;SDS011;68121;52.404;5.318;2023-03-13T05:41:19;5.25;;;3.60;;
78778;SDS011;68121;52.404;5.318;2023-03-13T05:43:46;8.32;;;2.80;;
78778;SDS011;68121;52.404;5.318;2023-03-13T05:46:12;6.63;;;3.22;;
78778;SDS011;68121;52.404;5.318;2023-03-13T05:48:38;6.57;;;2.78;;
78778;SDS011;68121;52.404;5.318;2023-03-13T05:51:04;4.80;;;2.45;;
78778;SDS011;68121;52.404;5.318;2023-03-13T05:53:30;7.18;;;2.38;;
78778;SDS011;68121;52.404;5.318;2023-03-13T05:55:56;9.13;;;3.35;;
78778;SDS011;68121;52.404;5.318;2023-03-13T05:58:22;6.20;;;2.28;;
78778;SDS011;68121;52.404;5.318;2023-03-13T06:00:48;9.93;;;2.55;;
78778;SDS011;68121;52.404;5.318;2023-03-13T06:03:14;4.60;;;2.55;;
78778;SDS011;68121;52.404;5.318;2023-03-13T06:05:40;7.35;;;2.47;;
78778;SDS011;68121;52.404;5.318;2023-03-13T06:08:06;5.13;;;2.22;;
78778;SDS011;68121;52.404;5.318;2023-03-13T06:10:32;7.97;;;2.28;;
78778;SDS011;68121;52.404;5.318;2023-03-13T06:12:58;10.95;;;2.40;;
78778;SDS011;68121;52.404;5.318;2023-03-13T06:15:24;6.53;;;3.20;;
78778;SDS011;68121;52.404;5.318;2023-03-13T06:17:50;5.32;;;1.75;;
78778;SDS011;68121;52.404;5.318;2023-03-13T06:20:16;7.72;;;2.47;;
78778;SDS011;68121;52.404;5.318;2023-03-13T06:22:43;5.85;;;2.10;;
78778;SDS011;68121;52.404;5.318;2023-03-13T06:25:10;9.80;;;2.40;;
78778;SDS011;68121;52.404;5.318;2023-03-13T06:27:36;8.60;;;2.20;;
78778;SDS011;68121;52.404;5.318;2023-03-13T06:30:02;5.57;;;2.10;;
78778;SDS011;68121;52.404;5.318;2023-03-13T06:32:29;7.28;;;2.13;;
78778;SDS011;68121;52.404;5.318;2023-03-13T06:34:55;7.45;;;2.20;;
78778;SDS011;68121;52.404;5.318;2023-03-13T06:37:21;7.93;;;2.15;;
78778;SDS011;68121;52.404;5.318;2023-03-13T06:39:47;4.80;;;2.30;;
78778;SDS011;68121;52.404;5.318;2023-03-13T06:42:13;4.40;;;1.83;;
78778;SDS011;68121;52.404;5.318;2023-03-13T06:44:39;4.65;;;1.92;;
78778;SDS011;68121;52.404;5.318;2023-03-13T06:47:06;6.15;;;2.40;;
78778;SDS011;68121;52.404;5.318;2023-03-13T06:49:32;8.85;;;2.08;;
78778;SDS011;68121;52.404;5.318;2023-03-13T06:51:58;6.15;;;2.58;;
78778;SDS011;68121;52.404;5.318;2023-03-13T06:54:24;10.50;;;2.38;;
78778;SDS011;68121;52.404;5.318;2023-03-13T06:56:50;6.25;;;2.67;;
78778;SDS011;68121;52.404;5.318;2023-03-13T06:59:16;7.18;;;3.10;;
78778;SDS011;68121;52.404;5.318;2023-03-13T07:01:42;6.22;;;2.53;;
78778;SDS011;68121;52.404;5.318;2023-03-13T07:04:10;5.70;;;2.13;;
78778;SDS011;68121;52.404;5.318;2023-03-13T07:06:37;10.40;;;2.67;;
78778;SDS011;68121;52.404;5.318;2023-03-13T07:09:03;7.72;;;2.42;;
78778;SDS011;68121;52.404;5.318;2023-03-13T07:11:29;7.82;;;3.20;;
78778;SDS011;68121;52.404;5.318;2023-03-13T07:13:56;6.07;;;2.40;;
78778;SDS011;68121;52.404;5.318;2023-03-13T07:16:22;6.47;;;2.55;;
78778;SDS011;68121;52.404;5.318;2023-03-13T07:18:48;5.30;;;2.70;;
78778;SDS011;68121;52.404;5.318;2023-03-13T07:21:15;8.80;;;2.58;;
78778;SDS011;68121;52.404;5.318;2023-03-13T07:23:41;8.40;;;2.58;;
78778;SDS011;68121;52.404;5.318;2023-03-13T07:26:09;5.53;;;1.92;;
78778;SDS011;68121;52.404;5.318;2023-03-13T07:28:37;10.85;;;2.22;;
78778;SDS011;68121;52.404;5.318;2023-03-13T07:33:39;6.25;;;2.50;;
78778;SDS011;68121;52.404;5.318;2023-03-13T07:36:06;6.38;;;2.40;;
78778;SDS011;68121;52.404;5.318;2023-03-13T07:38:33;4.80;;;2.30;;
78778;SDS011;68121;52.404;5.318;2023-03-13T07:40:59;8.07;;;2.25;;
78778;SDS011;68121;52.404;5.318;2023-03-13T07:43:25;4.43;;;2.53;;
78778;SDS011;68121;52.404;5.318;2023-03-13T07:45:56;8.15;;;2.90;;
78778;SDS011;68121;52.404;5.318;2023-03-13T07:48:24;6.13;;;2.22;;
78778;SDS011;68121;52.404;5.318;2023-03-13T07:50:53;5.70;;;2.60;;
78778;SDS011;68121;52.404;5.318;2023-03-13T07:53:20;4.25;;;2.20;;
78778;SDS011;68121;52.404;5.318;2023-03-13T07:55:53;3.70;;;1.95;;
78778;SDS011;68121;52.404;5.318;2023-03-13T07:58:21;6.55;;;2.72;;
78778;SDS011;68121;52.404;5.318;2023-03-13T08:00:48;4.65;;;2.30;;
78778;SDS011;68121;52.404;5.318;2023-03-13T08:03:14;5.57;;;2.55;;
78778;SDS011;68121;52.404;5.318;2023-03-13T08:05:41;6.50;;;2.42;;
78778;SDS011;68121;52.404;5.318;2023-03-13T08:08:07;2.90;;;1.52;;
78778;SDS011;68121;52.404;5.318;2023-03-13T08:10:33;5.03;;;1.83;;
78778;SDS011;68121;52.404;5.318;2023-03-13T08:12:59;3.88;;;1.98;;
78778;SDS011;68121;52.404;5.318;2023-03-13T08:15:25;3.92;;;2.45;;
78778;SDS011;68121;52.404;5.318;2023-03-13T08:17:53;12.27;;;3.38;;
78778;SDS011;68121;52.404;5.318;2023-03-13T08:20:20;3.72;;;2.10;;
78778;SDS011;68121;52.404;5.318;2023-03-13T08:22:47;6.13;;;2.20;;
78778;SDS011;68121;52.404;5.318;2023-03-13T08:25:14;7.90;;;2.50;;
78778;SDS011;68121;52.404;5.318;2023-03-13T08:27:40;7.50;;;2.00;;
78778;SDS011;68121;52.404;5.318;2023-03-13T08:30:06;5.82;;;1.98;;
78778;SDS011;68121;52.404;5.318;2023-03-13T08:32:33;5.82;;;2.15;;
78778;SDS011;68121;52.404;5.318;2023-03-13T08:35:00;7.10;;;3.33;;
78778;SDS011;68121;52.404;5.318;2023-03-13T08:37:27;7.80;;;1.88;;
78778;SDS011;68121;52.404;5.318;2023-03-13T08:39:54;4.85;;;2.22;;
78778;SDS011;68121;52.404;5.318;2023-03-13T08:42:24;5.35;;;1.73;;
78778;SDS011;68121;52.404;5.318;2023-03-13T08:44:50;6.88;;;2.60;;
78778;SDS011;68121;52.404;5.318;2023-03-13T08:47:16;7.13;;;2.80;;
78778;SDS011;68121;52.404;5.318;2023-03-13T08:49:44;7.38;;;1.85;;
78778;SDS011;68121;52.404;5.318;2023-03-13T08:52:11;4.75;;;1.92;;
78778;SDS011;68121;52.404;5.318;2023-03-13T08:54:37;2.85;;;2.03;;
78778;SDS011;68121;52.404;5.318;2023-03-13T08:57:03;3.60;;;1.40;;
78778;SDS011;68121;52.404;5.318;2023-03-13T08:59:29;5.78;;;2.42;;
78778;SDS011;68121;52.404;5.318;2023-03-13T09:01:55;5.75;;;1.23;;
78778;SDS011;68121;52.404;5.318;2023-03-13T09:04:21;4.45;;;1.10;;
78778;SDS011;68121;52.404;5.318;2023-03-13T09:06:47;5.93;;;1.23;;
78778;SDS011;68121;52.404;5.318;2023-03-13T09:09:13;4.65;;;1.00;;
78778;SDS011;68121;52.404;5.318;2023-03-13T09:11:39;7.65;;;1.40;;
78778;SDS011;68121;52.404;5.318;2023-03-13T09:14:05;3.83;;;1.58;;
78778;SDS011;68121;52.404;5.318;2023-03-13T09:16:34;4.38;;;1.35;;
78778;SDS011;68121;52.404;5.318;2023-03-13T09:19:00;8.55;;;1.27;;
78778;SDS011;68121;52.404;5.318;2023-03-13T09:21:28;9.35;;;1.52;;
78778;SDS011;68121;52.404;5.318;2023-03-13T09:23:55;5.53;;;1.70;;
78778;SDS011;68121;52.404;5.318;2023-03-13T09:26:22;6.13;;;1.05;;
78778;SDS011;68121;52.404;5.318;2023-03-13T09:28:48;7.40;;;1.30;;
78778;SDS011;68121;52.404;5.318;2023-03-13T09:31:16;7.72;;;1.42;;
78778;SDS011;68121;52.404;5.318;2023-03-13T09:33:44;4.93;;;1.20;;
78778;SDS011;68121;52.404;5.318;2023-03-13T09:36:11;5.05;;;0.95;;
78778;SDS011;68121;52.404;5.318;2023-03-13T09:38:38;4.63;;;1.08;;
78778;SDS011;68121;52.404;5.318;2023-03-13T09:41:13;6.55;;;1.45;;
78778;SDS011;68121;52.404;5.318;2023-03-13T09:46:38;8.38;;;1.52;;
78778;SDS011;68121;52.404;5.318;2023-03-13T09:49:29;7.38;;;1.23;;
78778;SDS011;68121;52.404;5.318;2023-03-13T09:52:06;10.75;;;1.85;;
78778;SDS011;68121;52.404;5.318;2023-03-13T10:02:37;5.60;;;1.40;;
78778;SDS011;68121;52.404;5.318;2023-03-13T10:07:46;4.63;;;0.85;;
78778;SDS011;68121;52.404;5.318;2023-03-13T10:10:15;4.18;;;1.52;;
78778;SDS011;68121;52.404;5.318;2023-03-13T10:12:51;5.47;;;1.10;;
78778;SDS011;68121;52.404;5.318;2023-03-13T10:18:23;4.07;;;1.10;;
78778;SDS011;68121;52.404;5.318;2023-03-13T10:20:51;3.95;;;1.33;;
78778;SDS011;68121;52.404;5.318;2023-03-13T10:25:54;4.32;;;1.05;;
78778;SDS011;68121;52.404;5.318;2023-03-13T10:28:20;3.28;;;2.05;;
78778;SDS011;68121;52.404;5.318;2023-03-13T10:31:30;2.70;;;0.63;;
78778;SDS011;68121;52.404;5.318;2023-03-13T10:33:42;4.55;;;0.77;;
78778;SDS011;68121;52.404;5.318;2023-03-13T10:36:09;2.53;;;0.90;;
78778;SDS011;68121;52.404;5.318;2023-03-13T10:44:16;6.45;;;0.80;;
78778;SDS011;68121;52.404;5.318;2023-03-13T10:46:45;3.65;;;1.08;;
78778;SDS011;68121;52.404;5.318;2023-03-13T10:49:16;3.25;;;0.95;;
78778;SDS011;68121;52.404;5.318;2023-03-13T10:51:51;4.45;;;0.77;;
78778;SDS011;68121;52.404;5.318;2023-03-13T10:54:21;3.00;;;0.75;;
78778;SDS011;68121;52.404;5.318;2023-03-13T10:57:16;1.33;;;0.65;;
78778;SDS011;68121;52.404;5.318;2023-03-13T10:59:45;2.70;;;0.90;;
78778;SDS011;68121;52.404;5.318;2023-03-13T11:02:19;7.03;;;0.90;;
78778;SDS011;68121;52.404;5.318;2023-03-13T11:04:56;5.47;;;1.05;;
78778;SDS011;68121;52.404;5.318;2023-03-13T11:07:25;5.60;;;1.05;;
78778;SDS011;68121;52.404;5.318;2023-03-13T11:09:56;3.78;;;1.00;;
78778;SDS011;68121;52.404;5.318;2023-03-13T11:12:24;3.70;;;1.05;;
78778;SDS011;68121;52.404;5.318;2023-03-13T11:14:58;6.57;;;1.10;;
78778;SDS011;68121;52.404;5.318;2023-03-13T11:17:33;4.35;;;1.00;;
78778;SDS011;68121;52.404;5.318;2023-03-13T11:20:24;5.72;;;1.25;;
78778;SDS011;68121;52.404;5.318;2023-03-13T11:22:54;3.20;;;0.88;;
78778;SDS011;68121;52.404;5.318;2023-03-13T11:30:44;4.72;;;0.93;;
78778;SDS011;68121;52.404;5.318;2023-03-13T11:33:15;8.38;;;1.10;;
78778;SDS011;68121;52.404;5.318;2023-03-13T11:35:59;2.78;;;0.88;;
78778;SDS011;68121;52.404;5.318;2023-03-13T11:38:34;3.85;;;1.00;;
78778;SDS011;68121;52.404;5.318;2023-03-13T11:41:05;2.88;;;1.00;;
78778;SDS011;68121;52.404;5.318;2023-03-13T11:46:13;5.55;;;1.00;;
78778;SDS011;68121;52.404;5.318;2023-03-13T11:51:14;8.95;;;1.65;;
78778;SDS011;68121;52.404;5.318;2023-03-13T11:59:53;8.30;;;1.48;;
78778;SDS011;68121;52.404;5.318;2023-03-13T12:02:38;5.28;;;0.95;;
78778;SDS011;68121;52.404;5.318;2023-03-13T12:05:09;8.30;;;1.45;;
78778;SDS011;68121;52.404;5.318;2023-03-13T12:07:40;6.88;;;1.73;;
78778;SDS011;68121;52.404;5.318;2023-03-13T12:10:12;5.43;;;1.23;;
78778;SDS011;68121;52.404;5.318;2023-03-13T12:12:46;6.03;;;1.83;;
78778;SDS011;68121;52.404;5.318;2023-03-13T12:15:45;7.30;;;1.58;;
78778;SDS011;68121;52.404;5.318;2023-03-13T12:18:23;7.78;;;1.30;;
78778;SDS011;68121;52.404;5.318;2023-03-13T12:21:14;8.82;;;1.52;;
78778;SDS011;68121;52.404;5.318;2023-03-13T12:29:57;9.77;;;1.27;;
78778;SDS011;68121;52.404;5.318;2023-03-13T12:40:44;9.90;;;1.55;;
78778;SDS011;68121;52.404;5.318;2023-03-13T12:43:32;6.57;;;1.93;;
78778;SDS011;68121;52.404;5.318;2023-03-13T12:49:04;8.63;;;1.80;;
78778;SDS011;68121;52.404;5.318;2023-03-13T13:00:13;12.38;;;2.45;;
78778;SDS011;68121;52.404;5.318;2023-03-13T13:02:44;9.25;;;2.40;;
78778;SDS011;68121;52.404;5.318;2023-03-13T13:05:16;5.95;;;1.40;;
78778;SDS011;68121;52.404;5.318;2023-03-13T13:07:55;10.10;;;2.10;;
78778;SDS011;68121;52.404;5.318;2023-03-13T13:10:25;11.43;;;2.33;;
78778;SDS011;68121;52.404;5.318;2023-03-13T13:15:42;8.73;;;1.40;;
78778;SDS011;68121;52.404;5.318;2023-03-13T13:18:13;13.43;;;2.50;;
78778;SDS011;68121;52.404;5.318;2023-03-13T13:23:39;13.52;;;2.72;;
78778;SDS011;68121;52.404;5.318;2023-03-13T13:28:55;11.63;;;2.08;;
78778;SDS011;68121;52.404;5.318;2023-03-13T13:39:46;10.93;;;2.13;;
78778;SDS011;68121;52.404;5.318;2023-03-13T13:47:27;11.88;;;1.77;;
78778;SDS011;68121;52.404;5.318;2023-03-13T13:49:55;8.73;;;1.60;;
78778;SDS011;68121;52.404;5.318;2023-03-13T13:52:32;8.20;;;2.10;;
78778;SDS011;68121;52.404;5.318;2023-03-13T13:54:59;11.15;;;2.10;;
78778;SDS011;68121;52.404;5.318;2023-03-13T13:57:30;22.27;;;3.88;;
78778;SDS011;68121;52.404;5.318;2023-03-13T14:00:04;12.48;;;1.77;;
78778;SDS011;68121;52.404;5.318;2023-03-13T14:02:48;8.48;;;1.85;;
78778;SDS011;68121;52.404;5.318;2023-03-13T14:05:17;10.50;;;2.35;;
78778;SDS011;68121;52.404;5.318;2023-03-13T14:08:05;11.73;;;2.28;;
78778;SDS011;68121;52.404;5.318;2023-03-13T14:11:27;9.45;;;1.85;;
78778;SDS011;68121;52.404;5.318;2023-03-13T14:14:08;8.57;;;2.17;;
78778;SDS011;68121;52.404;5.318;2023-03-13T14:16:37;17.15;;;2.22;;
78778;SDS011;68121;52.404;5.318;2023-03-13T14:19:04;16.15;;;2.60;;
78778;SDS011;68121;52.404;5.318;2023-03-13T14:21:30;8.95;;;1.80;;
78778;SDS011;68121;52.404;5.318;2023-03-13T14:23:59;12.98;;;2.05;;
78778;SDS011;68121;52.404;5.318;2023-03-13T14:26:26;9.90;;;2.38;;
78778;SDS011;68121;52.404;5.318;2023-03-13T14:28:58;11.98;;;2.42;;
78778;SDS011;68121;52.404;5.318;2023-03-13T14:31:29;14.95;;;2.45;;
78778;SDS011;68121;52.404;5.318;2023-03-13T14:33:59;12.13;;;2.72;;
78778;SDS011;68121;52.404;5.318;2023-03-13T14:36:27;12.25;;;2.42;;
78778;SDS011;68121;52.404;5.318;2023-03-13T14:38:58;15.10;;;2.58;;
78778;SDS011;68121;52.404;5.318;2023-03-13T14:43:54;12.23;;;2.95;;
78778;SDS011;68121;52.404;5.318;2023-03-13T14:49:13;14.90;;;3.17;;
78778;SDS011;68121;52.404;5.318;2023-03-13T14:51:45;10.95;;;2.45;;
78778;SDS011;68121;52.404;5.318;2023-03-13T14:54:29;13.48;;;2.20;;
78778;SDS011;68121;52.404;5.318;2023-03-13T14:59:33;13.27;;;2.33;;
78778;SDS011;68121;52.404;5.318;2023-03-13T15:02:13;9.95;;;1.60;;
78778;SDS011;68121;52.404;5.318;2023-03-13T15:04:59;10.73;;;2.45;;
78778;SDS011;68121;52.404;5.318;2023-03-13T15:07:39;9.82;;;2.17;;
78778;SDS011;68121;52.404;5.318;2023-03-13T15:15:56;9.13;;;1.95;;
78778;SDS011;68121;52.404;5.318;2023-03-13T15:18:24;11.15;;;2.70;;
78778;SDS011;68121;52.404;5.318;2023-03-13T15:20:52;18.67;;;2.67;;
78778;SDS011;68121;52.404;5.318;2023-03-13T15:23:19;9.05;;;2.22;;
78778;SDS011;68121;52.404;5.318;2023-03-13T15:25:46;11.63;;;2.17;;
78778;SDS011;68121;52.404;5.318;2023-03-13T15:28:22;9.02;;;2.33;;
78778;SDS011;68121;52.404;5.318;2023-03-13T15:30:49;11.48;;;2.40;;
78778;SDS011;68121;52.404;5.318;2023-03-13T15:33:17;13.32;;;2.13;;
78778;SDS011;68121;52.404;5.318;2023-03-13T15:35:45;13.05;;;2.17;;
78778;SDS011;68121;52.404;5.318;2023-03-13T15:38:13;13.00;;;2.75;;
78778;SDS011;68121;52.404;5.318;2023-03-13T15:40:40;11.30;;;2.08;;
78778;SDS011;68121;52.404;5.318;2023-03-13T15:43:06;17.40;;;2.40;;
78778;SDS011;68121;52.404;5.318;2023-03-13T15:45:33;11.52;;;2.00;;
78778;SDS011;68121;52.404;5.318;2023-03-13T15:48:02;12.25;;;1.95;;
78778;SDS011;68121;52.404;5.318;2023-03-13T15:50:36;17.27;;;2.10;;
78778;SDS011;68121;52.404;5.318;2023-03-13T15:53:05;8.02;;;1.92;;
78778;SDS011;68121;52.404;5.318;2023-03-13T15:55:46;24.73;;;2.53;;
78778;SDS011;68121;52.404;5.318;2023-03-13T15:58:13;13.00;;;1.73;;
78778;SDS011;68121;52.404;5.318;2023-03-13T16:00:39;14.45;;;2.00;;
78778;SDS011;68121;52.404;5.318;2023-03-13T16:03:16;13.32;;;3.25;;
78778;SDS011;68121;52.404;5.318;2023-03-13T16:05:47;12.82;;;2.17;;
78778;SDS011;68121;52.404;5.318;2023-03-13T16:08:14;19.90;;;2.55;;
78778;SDS011;68121;52.404;5.318;2023-03-13T16:10:42;12.80;;;2.97;;
78778;SDS011;68121;52.404;5.318;2023-03-13T16:13:09;15.18;;;2.15;;
78778;SDS011;68121;52.404;5.318;2023-03-13T16:15:35;19.50;;;2.53;;
78778;SDS011;68121;52.404;5.318;2023-03-13T16:18:02;16.58;;;2.63;;
78778;SDS011;68121;52.404;5.318;2023-03-13T16:20:30;10.77;;;2.63;;
78778;SDS011;68121;52.404;5.318;2023-03-13T16:22:57;11.82;;;2.40;;
78778;SDS011;68121;52.404;5.318;2023-03-13T16:25:23;17.08;;;3.35;;
78778;SDS011;68121;52.404;5.318;2023-03-13T16:27:50;16.60;;;3.40;;
78778;SDS011;68121;52.404;5.318;2023-03-13T16:30:21;16.60;;;2.45;;
78778;SDS011;68121;52.404;5.318;2023-03-13T16:32:52;16.85;;;2.70;;
78778;SDS011;68121;52.404;5.318;2023-03-13T16:35:18;13.30;;;2.47;;
78778;SDS011;68121;52.404;5.318;2023-03-13T16:37:45;19.17;;;2.72;;
78778;SDS011;68121;52.404;5.318;2023-03-13T16:40:15;14.13;;;3.30;;
78778;SDS011;68121;52.404;5.318;2023-03-13T16:42:43;10.63;;;1.70;;
78778;SDS011;68121;52.404;5.318;2023-03-13T16:45:09;12.77;;;2.30;;
78778;SDS011;68121;52.404;5.318;2023-03-13T16:47:36;10.00;;;2.22;;
78778;SDS011;68121;52.404;5.318;2023-03-13T16:52:49;15.98;;;2.40;;
78778;SDS011;68121;52.404;5.318;2023-03-13T16:55:17;17.48;;;2.53;;